Station info - map view · info · telemetry · weather · raw · status · beacons · messages · bulletins · browse · moving · my account
Callsign, ship name or locator: Clear       
It is possible to search using wildcards (*?) after a prefix. Example: OH*
APRS station KJ6BJL-9 - show graphs
Map loading...
Comment: /TinyTrak4 Alpha
Mic-E message: Off duty
Location: 38°28.20' N 120°32.47' W - locator CM98RL52BT - show map - static map
3.1 miles Northeast bearing 32° from Pioneer, Amador County, California, United States [?]
7.5 miles Northeast bearing 58° from Pine Grove, Amador County, California, United States
52.1 miles East bearing 98° from Sacramento, Sacramento County, California, United States
53.9 miles Northeast bearing 49° from Stockton, San Joaquin County, California, United States
Last position: 2018-12-03 16:38:41 EST (9d 18h49m ago)
2018-12-03 13:38:41 PST local time at Pioneer, United States [?]
Altitude: 3547 ft
Course: 239°
Speed: 25 MPH
Last path: KJ6BJL-9>SXRXRP via WIDE1-1,WIDE2-1,qAR,W6SRR-3 (good)
Positions stored: 7573
Stations near current position of KJ6BJL-9 - show more
callsign distance last heard - EST      callsign distance last heard - EST
CW91481.5 miles 358°2018-12-13 11:18:42 KJ6WYW-102.0 miles 181°2018-12-05 14:50:40
N6XD-82.2 miles 330°2018-11-28 16:05:47 N3CKF2.6 miles 308°2018-12-13 11:16:04
IRLP-57502.7 miles 295°2018-12-13 10:33:01 AC6LW-94.5 miles 224°2018-12-08 11:35:02
WS6P4.9 miles 167°2018-12-13 11:25:20 WS6P-105.4 miles 180°2018-12-13 11:26:24
DW93967.2 miles 156°2018-12-13 11:15:57 N6CO7.6 miles 232°2018-12-12 19:06:16
146.835008.2 miles 227°2018-12-13 11:26:58 K6HP-N9.0 miles 122°2018-12-13 11:16:44
WA5KWK11.4 miles 173°2018-12-13 11:25:01 KK6OTW11.5 miles 321°2018-12-10 20:48:16
W6HMT-1411.7 miles 307°2018-12-10 13:38:02 W6HMT-911.8 miles 310°2018-12-12 14:45:09
EW813513.8 miles 247°2018-12-04 20:30:10 CW660113.9 miles 110°2018-12-13 11:15:51
EW983814.2 miles 163°2018-12-13 11:13:39 N6SVX15.8 miles 240°2018-11-23 22:02:29
Stations which heard KJ6BJL-9 directly on radio –
callsign pkts first heard - EST last heard longest (tx => rx) longest at - EST
WR6ABD 1 2018-12-03 16:16:20 2018-12-03 16:16:20 CM98UN > CM97BC 132.1 miles 221° 2018-12-03 16:16:20
SLIDE 8 2018-12-03 14:12:51 2018-12-03 14:47:30 DM09CC > DM09BH 15.3 miles 337° 2018-12-03 14:47:30
VIRGPK 145 2018-11-30 19:25:45 2018-12-03 15:25:03 DM08AS > DM09GS 73.6 miles 20° 2018-12-03 15:25:03
COREY 8 2018-12-01 10:56:10 2018-12-03 15:32:26 DM09EH > DM08OK 75.9 miles 141° 2018-12-03 13:46:14
RANCHO 1 2018-12-03 16:29:18 2018-12-03 16:29:18 CM98SM > CM98QR 17.4 miles 326° 2018-12-03 16:29:18
K6FGA-1 4 2018-12-03 15:30:49 2018-12-03 16:11:24 DM08AQ > CM99MF 65.3 miles 305° 2018-12-03 15:30:49
WA6ODP-3 5 2018-12-03 16:16:16 2018-12-03 16:27:09 CM98UN > CM97AP 106.9 miles 236° 2018-12-03 16:16:16
ECHO 5 2018-12-03 15:32:31 2018-12-03 16:05:52 CM98UN > CM98XT 17.9 miles 35° 2018-12-03 16:05:52
SNOW 22 2018-12-01 13:41:20 2018-12-03 15:10:37 DM08CT > DM09BD 23.5 miles 346° 2018-12-03 15:10:37
CARSON 8 2018-12-03 15:18:57 2018-12-03 16:07:26 CM98UN > DM08AQ 17.1 miles 60° 2018-12-03 16:07:26
N6ZX-3 9 2018-12-03 15:47:08 2018-12-03 16:27:09 CM98WQ > CM87UK 148.0 miles 235° 2018-12-03 15:47:08
K6CDF-8 7 2018-12-03 15:33:13 2018-12-03 16:38:36 DM08AQ > CM89SC 137.3 miles 283° 2018-12-03 15:33:13
WA6TOW-2 3 2018-12-03 15:54:42 2018-12-03 16:20:44 CM98WP > CM87SN 146.9 miles 240° 2018-12-03 15:54:42
WA6EWV-3 1 2018-12-03 13:53:17 2018-12-03 13:53:17 DM09EH > DM08AW 29.7 miles 212° 2018-12-03 13:53:17
K7FED-1 13 2018-12-03 16:04:02 2018-12-03 16:37:35 CM98VO > CM97FP 96.5 miles 228° 2018-12-03 16:04:02
KJ6NKR-2 15 2018-12-03 13:53:50 2018-12-03 15:22:55 DM09EH > DM08AV 33.6 miles 213° 2018-12-03 13:53:50
DANAHR 2 2018-12-03 16:20:18 2018-12-03 16:27:44 CM98UN > CM98PR 23.4 miles 306° 2018-12-03 16:20:18
K6SJC-1 1 2018-12-03 16:11:22 2018-12-03 16:11:22 CM98UN > CM97JV 67.6 miles 229° 2018-12-03 16:11:22
VACA 9 2018-12-03 15:46:52 2018-12-03 16:37:21 CM98WQ > CM88WJ 109.6 miles 260° 2018-12-03 15:46:52
ALDER 23 2018-12-03 13:56:54 2018-12-03 16:00:38 DM09EG > CM98TR 53.3 miles 226° 2018-12-03 13:56:54
W6SRR-3 11 2018-12-03 15:47:08 2018-12-03 16:38:34 CM98WQ > CM97AO 123.0 miles 233° 2018-12-03 15:47:08
K3OES 1 2018-12-03 16:26:54 2018-12-03 16:26:54 CM98SM > CM89PK 136.7 miles 298° 2018-12-03 16:26:54
KF6AXA 2 2018-12-03 16:25:03 2018-12-03 16:29:51 CM98TM > CM98HT 53.1 miles 291° 2018-12-03 16:25:03
KM6LYW-1 3 2018-12-03 16:05:17 2018-12-03 16:24:57 CM98VO > CM98MV 43.5 miles 301° 2018-12-03 16:05:17
PINE 1 2018-12-03 15:47:39 2018-12-03 15:47:39 CM98WQ > CM98MR 46.8 miles 272° 2018-12-03 15:47:39
WARD 17 2018-12-03 13:55:16 2018-12-03 16:27:06 CM98SM > CM99UD 44.3 miles 13° 2018-12-03 16:27:06
KO6KL-10 10 2018-12-03 15:58:28 2018-12-03 16:27:03 CM98VP > CM97KR 79.9 miles 218° 2018-12-03 15:58:28
GAPGTE 2 2018-12-03 16:29:16 2018-12-03 16:36:56 CM98SM > CM98GM 55.8 miles 271° 2018-12-03 16:29:16
KO6KL-1 5 2018-12-03 15:54:41 2018-12-03 16:29:48 CM98WP > CM97KR 82.0 miles 219° 2018-12-03 15:54:41

Only position packets which were originated by the station are shown here. The range statistics show some extra long hops, because some digipeaters do not correctly add themselves to the digipeater path. Please check the raw packets.
About this site
This page shows real-time information collected from the Automatic Position Reporting System Internet network (APRS-IS). APRS is used by amateur (ham) radio operators to transmit real-time position information, weather data, telemetry and messages over the radio. A vehicle equipped with a GPS receiver, a VHF transmitter or HF transceiver and a small computer device called a tracker transmits it's location, speed and course in a small data packet, which is then received by a nearby iGate receiving site which forwards the packet on the Internet. Systems connected to the Internet can send information on the APRS-IS without a radio transmitter, or collect and display information transmitted anywhere in the world.
FAQ · Blog · Discussion group · Linking to aprs.fi · AIS sites · Service status · Database statistics · Advertising on aprs.fi · Technical details · API · Change log · Planned changes · Credits and thanks · Terms Of Service · iPhone/iPad APRS